sensor_id;sensor_type;location;lat;lon;timestamp;P1;durP1;ratioP1;P2;durP2;ratioP2
19617;SDS011;9956;51.006;13.670;2023-03-01T00:04:36;37.22;;;23.23;;
19617;SDS011;9956;51.006;13.670;2023-03-01T00:09:37;42.20;;;26.30;;
19617;SDS011;9956;51.006;13.670;2023-03-01T00:14:38;43.92;;;28.23;;
19617;SDS011;9956;51.006;13.670;2023-03-01T00:19:39;48.28;;;28.33;;
19617;SDS011;9956;51.006;13.670;2023-03-01T00:24:39;46.88;;;29.25;;
19617;SDS011;9956;51.006;13.670;2023-03-01T00:29:40;46.33;;;26.67;;
19617;SDS011;9956;51.006;13.670;2023-03-01T00:34:40;41.15;;;25.90;;
19617;SDS011;9956;51.006;13.670;2023-03-01T00:39:41;45.25;;;28.77;;
19617;SDS011;9956;51.006;13.670;2023-03-01T00:44:42;42.90;;;25.03;;
19617;SDS011;9956;51.006;13.670;2023-03-01T00:49:42;42.03;;;26.27;;
19617;SDS011;9956;51.006;13.670;2023-03-01T00:54:43;39.95;;;24.45;;
19617;SDS011;9956;51.006;13.670;2023-03-01T00:59:43;37.58;;;24.17;;
19617;SDS011;9956;51.006;13.670;2023-03-01T01:04:44;42.35;;;26.58;;
19617;SDS011;9956;51.006;13.670;2023-03-01T01:09:45;36.35;;;24.85;;
19617;SDS011;9956;51.006;13.670;2023-03-01T01:14:46;38.78;;;24.05;;
19617;SDS011;9956;51.006;13.670;2023-03-01T01:19:46;39.53;;;24.85;;
19617;SDS011;9956;51.006;13.670;2023-03-01T01:24:47;37.35;;;24.17;;
19617;SDS011;9956;51.006;13.670;2023-03-01T01:29:47;39.72;;;23.10;;
19617;SDS011;9956;51.006;13.670;2023-03-01T01:34:48;40.60;;;24.70;;
19617;SDS011;9956;51.006;13.670;2023-03-01T01:39:48;44.10;;;26.63;;
19617;SDS011;9956;51.006;13.670;2023-03-01T01:45:15;41.58;;;24.73;;
19617;SDS011;9956;51.006;13.670;2023-03-01T01:50:35;42.63;;;25.60;;
19617;SDS011;9956;51.006;13.670;2023-03-01T01:55:41;41.17;;;26.10;;
19617;SDS011;9956;51.006;13.670;2023-03-01T02:00:43;38.53;;;25.73;;
19617;SDS011;9956;51.006;13.670;2023-03-01T02:05:46;41.03;;;24.67;;
19617;SDS011;9956;51.006;13.670;2023-03-01T02:10:52;38.30;;;24.20;;
19617;SDS011;9956;51.006;13.670;2023-03-01T02:15:53;40.20;;;23.37;;
19617;SDS011;9956;51.006;13.670;2023-03-01T02:31:21;43.15;;;25.17;;
19617;SDS011;9956;51.006;13.670;2023-03-01T02:36:43;38.97;;;25.40;;
19617;SDS011;9956;51.006;13.670;2023-03-01T02:41:47;44.07;;;26.37;;
19617;SDS011;9956;51.006;13.670;2023-03-01T02:46:51;43.53;;;26.40;;
19617;SDS011;9956;51.006;13.670;2023-03-01T02:57:16;40.20;;;24.57;;
19617;SDS011;9956;51.006;13.670;2023-03-01T03:02:23;44.23;;;26.60;;
19617;SDS011;9956;51.006;13.670;2023-03-01T03:07:47;43.30;;;24.83;;
19617;SDS011;9956;51.006;13.670;2023-03-01T03:12:49;37.27;;;23.23;;
19617;SDS011;9956;51.006;13.670;2023-03-01T03:17:54;39.30;;;23.33;;
19617;SDS011;9956;51.006;13.670;2023-03-01T03:22:56;38.63;;;23.53;;
19617;SDS011;9956;51.006;13.670;2023-03-01T03:28:06;41.77;;;24.03;;
19617;SDS011;9956;51.006;13.670;2023-03-01T03:33:10;36.17;;;22.47;;
19617;SDS011;9956;51.006;13.670;2023-03-01T03:38:12;39.90;;;23.43;;
19617;SDS011;9956;51.006;13.670;2023-03-01T03:48:20;42.13;;;24.67;;
19617;SDS011;9956;51.006;13.670;2023-03-01T03:53:21;34.77;;;22.63;;
19617;SDS011;9956;51.006;13.670;2023-03-01T03:58:23;36.50;;;22.83;;
19617;SDS011;9956;51.006;13.670;2023-03-01T04:03:25;35.63;;;22.47;;
19617;SDS011;9956;51.006;13.670;2023-03-01T04:08:26;39.37;;;23.57;;
19617;SDS011;9956;51.006;13.670;2023-03-01T04:13:27;40.13;;;23.47;;
19617;SDS011;9956;51.006;13.670;2023-03-01T04:18:28;41.43;;;24.33;;
19617;SDS011;9956;51.006;13.670;2023-03-01T04:23:28;43.03;;;26.37;;
19617;SDS011;9956;51.006;13.670;2023-03-01T04:28:39;44.23;;;24.87;;
19617;SDS011;9956;51.006;13.670;2023-03-01T04:33:41;39.53;;;24.27;;
19617;SDS011;9956;51.006;13.670;2023-03-01T04:38:43;38.90;;;24.07;;
19617;SDS011;9956;51.006;13.670;2023-03-01T04:43:47;44.63;;;23.77;;
19617;SDS011;9956;51.006;13.670;2023-03-01T04:48:48;38.00;;;22.43;;
19617;SDS011;9956;51.006;13.670;2023-03-01T04:53:49;41.33;;;23.47;;
19617;SDS011;9956;51.006;13.670;2023-03-01T04:58:49;37.53;;;22.67;;
19617;SDS011;9956;51.006;13.670;2023-03-01T05:03:53;45.33;;;23.70;;
19617;SDS011;9956;51.006;13.670;2023-03-01T05:08:54;42.37;;;24.23;;
19617;SDS011;9956;51.006;13.670;2023-03-01T05:13:55;40.63;;;24.40;;
19617;SDS011;9956;51.006;13.670;2023-03-01T05:18:55;41.47;;;24.40;;
19617;SDS011;9956;51.006;13.670;2023-03-01T05:23:56;36.03;;;24.23;;
19617;SDS011;9956;51.006;13.670;2023-03-01T05:28:57;39.77;;;24.33;;
19617;SDS011;9956;51.006;13.670;2023-03-01T05:33:58;43.13;;;25.87;;
19617;SDS011;9956;51.006;13.670;2023-03-01T05:38:59;39.60;;;24.20;;
19617;SDS011;9956;51.006;13.670;2023-03-01T05:44:00;42.00;;;24.97;;
19617;SDS011;9956;51.006;13.670;2023-03-01T05:49:00;43.90;;;24.53;;
19617;SDS011;9956;51.006;13.670;2023-03-01T05:54:00;43.83;;;25.30;;
19617;SDS011;9956;51.006;13.670;2023-03-01T05:59:01;41.57;;;25.33;;
19617;SDS011;9956;51.006;13.670;2023-03-01T06:04:03;40.70;;;24.87;;
19617;SDS011;9956;51.006;13.670;2023-03-01T06:09:04;40.20;;;23.20;;
19617;SDS011;9956;51.006;13.670;2023-03-01T06:14:07;40.40;;;27.40;;
19617;SDS011;9956;51.006;13.670;2023-03-01T06:19:08;46.47;;;27.40;;
19617;SDS011;9956;51.006;13.670;2023-03-01T06:24:08;45.00;;;27.33;;
19617;SDS011;9956;51.006;13.670;2023-03-01T06:29:09;40.77;;;26.40;;
19617;SDS011;9956;51.006;13.670;2023-03-01T06:34:09;42.40;;;26.57;;
19617;SDS011;9956;51.006;13.670;2023-03-01T06:39:13;41.67;;;25.33;;
19617;SDS011;9956;51.006;13.670;2023-03-01T06:44:14;41.20;;;23.03;;
19617;SDS011;9956;51.006;13.670;2023-03-01T06:49:14;43.00;;;26.70;;
19617;SDS011;9956;51.006;13.670;2023-03-01T06:54:16;40.65;;;25.83;;
19617;SDS011;9956;51.006;13.670;2023-03-01T06:59:18;37.58;;;24.25;;
19617;SDS011;9956;51.006;13.670;2023-03-01T07:04:19;43.70;;;29.17;;
19617;SDS011;9956;51.006;13.670;2023-03-01T07:09:21;32.65;;;24.77;;
19617;SDS011;9956;51.006;13.670;2023-03-01T07:14:22;33.53;;;22.83;;
19617;SDS011;9956;51.006;13.670;2023-03-01T07:19:25;25.13;;;19.08;;
19617;SDS011;9956;51.006;13.670;2023-03-01T07:24:26;29.85;;;21.27;;
19617;SDS011;9956;51.006;13.670;2023-03-01T07:29:26;28.90;;;21.52;;
19617;SDS011;9956;51.006;13.670;2023-03-01T07:34:29;26.75;;;20.38;;
19617;SDS011;9956;51.006;13.670;2023-03-01T07:39:29;28.00;;;21.15;;
19617;SDS011;9956;51.006;13.670;2023-03-01T07:44:30;28.35;;;21.48;;
19617;SDS011;9956;51.006;13.670;2023-03-01T07:49:30;30.55;;;21.65;;
19617;SDS011;9956;51.006;13.670;2023-03-01T07:54:30;25.90;;;21.67;;
19617;SDS011;9956;51.006;13.670;2023-03-01T07:59:31;30.40;;;21.42;;
19617;SDS011;9956;51.006;13.670;2023-03-01T08:04:32;29.23;;;20.92;;
19617;SDS011;9956;51.006;13.670;2023-03-01T08:09:36;27.10;;;20.92;;
19617;SDS011;9956;51.006;13.670;2023-03-01T08:14:37;26.00;;;20.30;;
19617;SDS011;9956;51.006;13.670;2023-03-01T08:19:38;28.52;;;21.45;;
19617;SDS011;9956;51.006;13.670;2023-03-01T08:24:38;29.60;;;22.58;;
19617;SDS011;9956;51.006;13.670;2023-03-01T08:29:39;35.00;;;24.65;;
19617;SDS011;9956;51.006;13.670;2023-03-01T08:34:39;33.03;;;23.30;;
19617;SDS011;9956;51.006;13.670;2023-03-01T08:39:39;31.30;;;23.65;;
19617;SDS011;9956;51.006;13.670;2023-03-01T08:44:40;33.17;;;24.35;;
19617;SDS011;9956;51.006;13.670;2023-03-01T08:49:40;32.60;;;23.88;;
19617;SDS011;9956;51.006;13.670;2023-03-01T08:54:41;26.85;;;22.40;;
19617;SDS011;9956;51.006;13.670;2023-03-01T08:59:41;31.58;;;24.70;;
19617;SDS011;9956;51.006;13.670;2023-03-01T09:04:42;30.67;;;24.98;;
19617;SDS011;9956;51.006;13.670;2023-03-01T09:09:42;27.60;;;23.10;;
19617;SDS011;9956;51.006;13.670;2023-03-01T09:14:43;29.63;;;22.27;;
19617;SDS011;9956;51.006;13.670;2023-03-01T09:19:43;24.30;;;20.65;;
19617;SDS011;9956;51.006;13.670;2023-03-01T09:24:44;23.92;;;20.35;;
19617;SDS011;9956;51.006;13.670;2023-03-01T09:29:44;25.10;;;19.35;;
19617;SDS011;9956;51.006;13.670;2023-03-01T09:34:45;21.55;;;17.85;;
19617;SDS011;9956;51.006;13.670;2023-03-01T09:40:05;21.98;;;19.65;;
19617;SDS011;9956;51.006;13.670;2023-03-01T09:45:11;22.10;;;19.65;;
19617;SDS011;9956;51.006;13.670;2023-03-01T09:50:23;24.55;;;19.95;;
19617;SDS011;9956;51.006;13.670;2023-03-01T09:55:30;22.60;;;20.20;;
19617;SDS011;9956;51.006;13.670;2023-03-01T10:00:47;23.08;;;20.55;;
19617;SDS011;9956;51.006;13.670;2023-03-01T10:11:26;23.90;;;20.20;;
19617;SDS011;9956;51.006;13.670;2023-03-01T10:22:04;22.50;;;20.10;;
19617;SDS011;9956;51.006;13.670;2023-03-01T10:32:25;20.73;;;18.73;;
19617;SDS011;9956;51.006;13.670;2023-03-01T10:37:26;22.65;;;20.38;;
19617;SDS011;9956;51.006;13.670;2023-03-01T10:42:29;22.20;;;19.77;;
19617;SDS011;9956;51.006;13.670;2023-03-01T10:47:31;23.50;;;21.08;;
19617;SDS011;9956;51.006;13.670;2023-03-01T10:52:33;23.80;;;21.50;;
19617;SDS011;9956;51.006;13.670;2023-03-01T10:57:37;23.98;;;21.40;;
19617;SDS011;9956;51.006;13.670;2023-03-01T11:02:38;23.13;;;20.60;;
19617;SDS011;9956;51.006;13.670;2023-03-01T11:12:50;23.50;;;21.30;;
19617;SDS011;9956;51.006;13.670;2023-03-01T11:17:52;22.73;;;20.23;;
19617;SDS011;9956;51.006;13.670;2023-03-01T11:22:54;23.17;;;20.50;;
19617;SDS011;9956;51.006;13.670;2023-03-01T11:27:56;22.88;;;20.67;;
19617;SDS011;9956;51.006;13.670;2023-03-01T11:33:08;23.52;;;21.20;;
19617;SDS011;9956;51.006;13.670;2023-03-01T11:38:24;22.75;;;20.63;;
19617;SDS011;9956;51.006;13.670;2023-03-01T11:48:45;22.60;;;20.20;;
19617;SDS011;9956;51.006;13.670;2023-03-01T12:36:18;13.35;;;11.93;;
19617;SDS011;9956;51.006;13.670;2023-03-01T12:46:47;14.27;;;12.75;;
19617;SDS011;9956;51.006;13.670;2023-03-01T12:52:08;17.55;;;14.15;;
19617;SDS011;9956;51.006;13.670;2023-03-01T13:02:16;16.42;;;14.63;;
19617;SDS011;9956;51.006;13.670;2023-03-01T13:07:24;18.65;;;16.50;;
19617;SDS011;9956;51.006;13.670;2023-03-01T13:38:55;19.33;;;17.33;;
19617;SDS011;9956;51.006;13.670;2023-03-01T13:43:58;20.98;;;16.45;;
19617;SDS011;9956;51.006;13.670;2023-03-01T13:48:59;17.80;;;15.57;;
19617;SDS011;9956;51.006;13.670;2023-03-01T13:54:00;20.33;;;17.73;;
19617;SDS011;9956;51.006;13.670;2023-03-01T13:59:14;19.88;;;17.77;;
19617;SDS011;9956;51.006;13.670;2023-03-01T14:04:28;19.27;;;16.52;;
19617;SDS011;9956;51.006;13.670;2023-03-01T14:09:38;20.73;;;18.33;;
19617;SDS011;9956;51.006;13.670;2023-03-01T14:14:42;19.95;;;17.85;;
19617;SDS011;9956;51.006;13.670;2023-03-01T14:19:45;19.70;;;17.80;;
19617;SDS011;9956;51.006;13.670;2023-03-01T14:24:48;19.63;;;17.73;;
19617;SDS011;9956;51.006;13.670;2023-03-01T14:30:00;19.30;;;17.30;;
19617;SDS011;9956;51.006;13.670;2023-03-01T14:35:20;19.70;;;17.73;;
19617;SDS011;9956;51.006;13.670;2023-03-01T14:40:28;22.25;;;18.00;;
19617;SDS011;9956;51.006;13.670;2023-03-01T14:45:31;20.80;;;18.50;;
19617;SDS011;9956;51.006;13.670;2023-03-01T14:50:32;20.50;;;18.45;;
19617;SDS011;9956;51.006;13.670;2023-03-01T14:55:35;19.98;;;17.98;;
19617;SDS011;9956;51.006;13.670;2023-03-01T15:00:38;21.02;;;17.73;;
19617;SDS011;9956;51.006;13.670;2023-03-01T15:05:40;20.10;;;17.00;;
19617;SDS011;9956;51.006;13.670;2023-03-01T15:10:54;20.30;;;16.55;;
19617;SDS011;9956;51.006;13.670;2023-03-01T15:16:01;20.63;;;17.60;;
19617;SDS011;9956;51.006;13.670;2023-03-01T15:21:08;21.55;;;17.98;;
19617;SDS011;9956;51.006;13.670;2023-03-01T15:26:40;20.80;;;17.00;;
19617;SDS011;9956;51.006;13.670;2023-03-01T15:32:23;19.75;;;17.20;;
19617;SDS011;9956;51.006;13.670;2023-03-01T15:42:40;24.65;;;18.60;;
19617;SDS011;9956;51.006;13.670;2023-03-01T15:47:41;21.27;;;17.08;;
19617;SDS011;9956;51.006;13.670;2023-03-01T15:52:48;20.15;;;17.17;;
19617;SDS011;9956;51.006;13.670;2023-03-01T15:57:50;23.30;;;17.58;;
19617;SDS011;9956;51.006;13.670;2023-03-01T16:03:00;21.35;;;17.95;;
19617;SDS011;9956;51.006;13.670;2023-03-01T16:08:01;20.52;;;17.05;;
19617;SDS011;9956;51.006;13.670;2023-03-01T16:13:02;21.05;;;18.27;;
19617;SDS011;9956;51.006;13.670;2023-03-01T16:18:02;20.23;;;16.77;;
19617;SDS011;9956;51.006;13.670;2023-03-01T16:23:04;20.77;;;16.35;;
19617;SDS011;9956;51.006;13.670;2023-03-01T16:28:06;23.85;;;18.30;;
19617;SDS011;9956;51.006;13.670;2023-03-01T16:33:08;26.02;;;18.13;;
19617;SDS011;9956;51.006;13.670;2023-03-01T16:38:09;22.65;;;17.13;;
19617;SDS011;9956;51.006;13.670;2023-03-01T16:43:10;23.83;;;16.92;;
19617;SDS011;9956;51.006;13.670;2023-03-01T16:48:11;23.40;;;16.75;;
19617;SDS011;9956;51.006;13.670;2023-03-01T16:53:11;24.80;;;16.48;;
19617;SDS011;9956;51.006;13.670;2023-03-01T16:58:12;24.77;;;16.85;;
19617;SDS011;9956;51.006;13.670;2023-03-01T17:03:12;23.30;;;17.60;;
19617;SDS011;9956;51.006;13.670;2023-03-01T17:08:14;26.77;;;17.75;;
19617;SDS011;9956;51.006;13.670;2023-03-01T17:13:14;30.42;;;19.20;;
19617;SDS011;9956;51.006;13.670;2023-03-01T17:18:15;26.98;;;20.13;;
19617;SDS011;9956;51.006;13.670;2023-03-01T17:23:15;28.55;;;21.67;;
19617;SDS011;9956;51.006;13.670;2023-03-01T17:28:16;35.78;;;23.92;;
19617;SDS011;9956;51.006;13.670;2023-03-01T17:33:16;32.58;;;23.17;;
19617;SDS011;9956;51.006;13.670;2023-03-01T17:38:17;31.90;;;23.60;;
19617;SDS011;9956;51.006;13.670;2023-03-01T17:43:18;33.60;;;22.67;;
19617;SDS011;9956;51.006;13.670;2023-03-01T17:48:19;36.25;;;25.80;;
19617;SDS011;9956;51.006;13.670;2023-03-01T17:53:19;39.25;;;26.08;;
19617;SDS011;9956;51.006;13.670;2023-03-01T17:58:20;38.72;;;27.67;;
19617;SDS011;9956;51.006;13.670;2023-03-01T18:03:21;44.22;;;30.30;;
19617;SDS011;9956;51.006;13.670;2023-03-01T18:08:22;41.13;;;29.58;;
19617;SDS011;9956;51.006;13.670;2023-03-01T18:13:22;35.97;;;24.95;;
19617;SDS011;9956;51.006;13.670;2023-03-01T18:18:23;33.33;;;24.65;;
19617;SDS011;9956;51.006;13.670;2023-03-01T18:23:23;44.15;;;27.30;;
19617;SDS011;9956;51.006;13.670;2023-03-01T18:28:24;42.42;;;28.77;;
19617;SDS011;9956;51.006;13.670;2023-03-01T18:33:25;43.33;;;30.42;;
19617;SDS011;9956;51.006;13.670;2023-03-01T18:38:25;43.65;;;30.58;;
19617;SDS011;9956;51.006;13.670;2023-03-01T18:43:29;40.08;;;28.35;;
19617;SDS011;9956;51.006;13.670;2023-03-01T18:48:32;39.80;;;26.73;;
19617;SDS011;9956;51.006;13.670;2023-03-01T18:53:32;48.55;;;32.42;;
19617;SDS011;9956;51.006;13.670;2023-03-01T18:58:33;62.28;;;40.83;;
19617;SDS011;9956;51.006;13.670;2023-03-01T19:03:34;53.88;;;34.42;;
19617;SDS011;9956;51.006;13.670;2023-03-01T19:08:34;41.72;;;27.90;;
19617;SDS011;9956;51.006;13.670;2023-03-01T19:13:36;75.72;;;47.70;;
19617;SDS011;9956;51.006;13.670;2023-03-01T19:18:38;86.07;;;51.60;;
19617;SDS011;9956;51.006;13.670;2023-03-01T19:23:40;69.30;;;44.75;;
19617;SDS011;9956;51.006;13.670;2023-03-01T19:28:40;61.72;;;40.97;;
19617;SDS011;9956;51.006;13.670;2023-03-01T19:33:41;62.22;;;41.20;;
19617;SDS011;9956;51.006;13.670;2023-03-01T19:38:42;72.63;;;43.85;;
19617;SDS011;9956;51.006;13.670;2023-03-01T19:43:43;60.40;;;40.42;;
19617;SDS011;9956;51.006;13.670;2023-03-01T19:48:45;53.40;;;35.53;;
19617;SDS011;9956;51.006;13.670;2023-03-01T19:53:45;50.28;;;32.65;;
19617;SDS011;9956;51.006;13.670;2023-03-01T19:58:46;54.72;;;37.20;;
19617;SDS011;9956;51.006;13.670;2023-03-01T20:03:49;59.60;;;38.08;;
19617;SDS011;9956;51.006;13.670;2023-03-01T20:08:50;51.50;;;34.13;;
19617;SDS011;9956;51.006;13.670;2023-03-01T20:13:50;49.63;;;34.08;;
19617;SDS011;9956;51.006;13.670;2023-03-01T20:19:12;43.80;;;30.50;;
19617;SDS011;9956;51.006;13.670;2023-03-01T20:24:12;45.17;;;31.00;;
19617;SDS011;9956;51.006;13.670;2023-03-01T20:29:12;42.70;;;28.55;;
19617;SDS011;9956;51.006;13.670;2023-03-01T20:34:13;44.88;;;30.17;;
19617;SDS011;9956;51.006;13.670;2023-03-01T20:39:13;52.03;;;34.10;;
19617;SDS011;9956;51.006;13.670;2023-03-01T20:44:14;42.47;;;28.70;;
19617;SDS011;9956;51.006;13.670;2023-03-01T20:49:15;47.03;;;29.92;;
19617;SDS011;9956;51.006;13.670;2023-03-01T20:54:15;63.50;;;33.67;;
19617;SDS011;9956;51.006;13.670;2023-03-01T20:59:16;50.97;;;31.90;;
19617;SDS011;9956;51.006;13.670;2023-03-01T21:04:16;46.75;;;29.20;;
19617;SDS011;9956;51.006;13.670;2023-03-01T21:09:17;48.17;;;29.27;;
19617;SDS011;9956;51.006;13.670;2023-03-01T21:14:17;49.80;;;31.05;;
19617;SDS011;9956;51.006;13.670;2023-03-01T21:19:18;61.42;;;35.08;;
19617;SDS011;9956;51.006;13.670;2023-03-01T21:24:20;48.95;;;30.55;;
19617;SDS011;9956;51.006;13.670;2023-03-01T21:29:20;54.50;;;32.72;;
19617;SDS011;9956;51.006;13.670;2023-03-01T21:34:21;52.22;;;30.58;;
19617;SDS011;9956;51.006;13.670;2023-03-01T21:39:28;49.30;;;29.90;;
19617;SDS011;9956;51.006;13.670;2023-03-01T21:44:29;44.63;;;30.02;;
19617;SDS011;9956;51.006;13.670;2023-03-01T21:49:30;54.90;;;32.78;;
19617;SDS011;9956;51.006;13.670;2023-03-01T21:54:30;51.53;;;33.20;;
19617;SDS011;9956;51.006;13.670;2023-03-01T21:59:41;47.05;;;30.00;;
19617;SDS011;9956;51.006;13.670;2023-03-01T22:04:41;56.83;;;35.60;;
19617;SDS011;9956;51.006;13.670;2023-03-01T22:09:42;51.30;;;31.63;;
19617;SDS011;9956;51.006;13.670;2023-03-01T22:14:42;41.25;;;26.58;;
19617;SDS011;9956;51.006;13.670;2023-03-01T22:19:43;45.45;;;27.83;;
19617;SDS011;9956;51.006;13.670;2023-03-01T22:24:45;45.90;;;30.55;;
19617;SDS011;9956;51.006;13.670;2023-03-01T22:29:45;45.88;;;30.42;;
19617;SDS011;9956;51.006;13.670;2023-03-01T22:34:46;45.13;;;29.88;;
19617;SDS011;9956;51.006;13.670;2023-03-01T22:39:46;42.50;;;29.00;;
19617;SDS011;9956;51.006;13.670;2023-03-01T22:44:47;43.08;;;27.02;;
19617;SDS011;9956;51.006;13.670;2023-03-01T22:49:47;42.58;;;28.00;;
19617;SDS011;9956;51.006;13.670;2023-03-01T22:54:48;45.92;;;28.10;;
19617;SDS011;9956;51.006;13.670;2023-03-01T22:59:48;44.22;;;27.38;;
19617;SDS011;9956;51.006;13.670;2023-03-01T23:04:49;47.47;;;28.05;;
19617;SDS011;9956;51.006;13.670;2023-03-01T23:09:50;41.85;;;27.58;;
19617;SDS011;9956;51.006;13.670;2023-03-01T23:14:50;46.25;;;25.95;;
19617;SDS011;9956;51.006;13.670;2023-03-01T23:19:51;38.97;;;24.98;;
19617;SDS011;9956;51.006;13.670;2023-03-01T23:24:52;126.63;;;51.42;;
19617;SDS011;9956;51.006;13.670;2023-03-01T23:29:52;88.50;;;45.75;;
19617;SDS011;9956;51.006;13.670;2023-03-01T23:34:53;115.82;;;56.60;;
19617;SDS011;9956;51.006;13.670;2023-03-01T23:39:53;76.50;;;41.08;;
19617;SDS011;9956;51.006;13.670;2023-03-01T23:44:54;296.42;;;110.63;;
19617;SDS011;9956;51.006;13.670;2023-03-01T23:49:54;167.25;;;63.80;;
19617;SDS011;9956;51.006;13.670;2023-03-01T23:54:56;180.93;;;69.00;;
19617;SDS011;9956;51.006;13.670;2023-03-01T23:59:56;41.75;;;26.25;;
